createdAt,value
2023-05-14T00:01:01.934Z,10.57
2023-05-14T00:06:32.322Z,10.58
2023-05-14T00:09:00.550Z,10.52
2023-05-14T00:11:28.659Z,10.46
2023-05-14T00:13:56.797Z,10.37
2023-05-14T00:16:25.057Z,10.28
2023-05-14T00:18:53.312Z,10.22
2023-05-14T00:21:21.475Z,10.17
2023-05-14T00:23:49.676Z,10.13
2023-05-14T00:26:17.771Z,10.07
2023-05-14T00:28:46.383Z,10.00
2023-05-14T00:31:14.771Z,9.94
2023-05-14T00:33:42.995Z,9.90
2023-05-14T00:36:11.139Z,9.84
2023-05-14T00:38:39.256Z,9.80
2023-05-14T00:41:09.001Z,9.77
2023-05-14T00:43:37.123Z,9.73
2023-05-14T00:46:05.987Z,9.69
2023-05-14T00:48:34.355Z,9.66
2023-05-14T00:51:02.714Z,9.62
2023-05-14T00:53:31.084Z,9.57
2023-05-14T00:55:59.259Z,9.53
2023-05-14T00:58:27.622Z,9.50
2023-05-14T01:00:55.940Z,9.46
2023-05-14T01:03:24.280Z,9.41
2023-05-14T01:06:28.001Z,9.39
2023-05-14T01:09:30.427Z,9.36
2023-05-14T01:12:34.349Z,9.33
2023-05-14T01:15:19.406Z,9.28
2023-05-14T01:17:56.708Z,9.24
2023-05-14T01:20:27.168Z,9.26
2023-05-14T01:22:55.370Z,9.25
2023-05-14T01:25:23.530Z,9.22
2023-05-14T01:28:01.144Z,9.18
2023-05-14T01:30:35.961Z,9.15
2023-05-14T01:33:13.485Z,9.11
2023-05-14T01:35:44.305Z,9.08
2023-05-14T01:38:18.156Z,9.07
2023-05-14T01:40:48.315Z,9.07
2023-05-14T01:43:17.164Z,9.07
2023-05-14T01:45:45.638Z,9.06
2023-05-14T01:48:13.856Z,9.07
2023-05-14T01:50:42.156Z,9.07
2023-05-14T01:53:10.432Z,9.07
2023-05-14T01:55:38.757Z,9.05
2023-05-14T01:58:06.890Z,9.03
2023-05-14T02:00:35.123Z,8.99
2023-05-14T02:03:03.595Z,8.92
2023-05-14T02:05:32.097Z,8.88
2023-05-14T02:08:00.258Z,8.86
2023-05-14T02:10:28.415Z,8.85
2023-05-14T02:12:56.537Z,8.83
2023-05-14T02:15:24.666Z,8.81
2023-05-14T02:17:52.916Z,8.82
2023-05-14T02:20:21.298Z,8.78
2023-05-14T02:22:49.548Z,8.85
2023-05-14T02:25:17.737Z,8.92
2023-05-14T02:27:45.906Z,8.97
2023-05-14T02:30:14.311Z,9.02
2023-05-14T02:32:42.532Z,9.06
2023-05-14T02:35:10.801Z,9.08
2023-05-14T02:37:38.979Z,9.06
2023-05-14T02:40:08.235Z,9.06
2023-05-14T02:42:36.571Z,9.07
2023-05-14T02:45:05.599Z,9.06
2023-05-14T02:47:36.105Z,9.08
2023-05-14T02:50:07.101Z,9.10
2023-05-14T02:52:35.826Z,9.12
2023-05-14T02:55:04.876Z,9.17
2023-05-14T02:57:33.002Z,9.20
2023-05-14T03:00:01.231Z,9.23
2023-05-14T03:02:30.347Z,9.26
2023-05-14T03:04:59.218Z,9.29
2023-05-14T03:07:27.372Z,9.29
2023-05-14T03:09:55.606Z,9.31
2023-05-14T03:12:23.757Z,9.38
2023-05-14T03:14:51.920Z,9.45
2023-05-14T03:17:20.091Z,9.47
2023-05-14T03:19:48.351Z,9.47
2023-05-14T03:22:16.863Z,9.49
2023-05-14T03:24:45.017Z,9.51
2023-05-14T03:27:13.090Z,9.58
2023-05-14T03:29:41.226Z,9.67
2023-05-14T03:32:09.514Z,9.79
2023-05-14T03:34:37.735Z,9.93
2023-05-14T03:37:05.886Z,10.04
2023-05-14T03:39:34.036Z,10.15
2023-05-14T03:42:02.375Z,10.23
2023-05-14T03:44:30.559Z,10.32
2023-05-14T03:46:58.739Z,10.41
2023-05-14T03:49:27.017Z,10.49
2023-05-14T03:51:56.034Z,10.57
2023-05-14T03:54:24.173Z,10.61
2023-05-14T03:56:52.352Z,10.64
2023-05-14T03:59:20.491Z,10.65
2023-05-14T04:01:48.650Z,10.67
2023-05-14T04:04:16.846Z,10.70
2023-05-14T04:06:45.219Z,10.76
2023-05-14T04:09:13.333Z,10.80
2023-05-14T04:11:41.548Z,10.84
2023-05-14T04:14:09.724Z,10.91
2023-05-14T04:16:37.955Z,10.98
2023-05-14T04:19:06.760Z,11.05
2023-05-14T04:21:34.990Z,11.14
2023-05-14T04:24:03.272Z,11.22
2023-05-14T04:26:31.534Z,11.28
2023-05-14T04:29:02.968Z,11.38
2023-05-14T04:31:31.823Z,11.54
2023-05-14T04:34:00.166Z,11.66
2023-05-14T04:36:28.345Z,11.78
2023-05-14T04:38:56.603Z,11.89
2023-05-14T04:41:24.719Z,12.00
